createdAt,value
2018-07-21T00:02:20.500Z,5.47
2018-07-21T00:04:49.063Z,5.15
2018-07-21T00:07:17.403Z,5.45
2018-07-21T00:09:45.716Z,5.42
2018-07-21T00:12:14.078Z,5.80
2018-07-21T00:14:42.459Z,5.50
2018-07-21T00:17:10.809Z,5.72
2018-07-21T00:19:39.182Z,5.10
2018-07-21T00:22:07.781Z,5.30
2018-07-21T00:24:36.083Z,5.22
2018-07-21T00:27:04.429Z,5.35
2018-07-21T00:29:32.758Z,5.00
2018-07-21T00:32:01.075Z,5.13
2018-07-21T00:34:29.404Z,5.30
2018-07-21T00:36:57.690Z,5.17
2018-07-21T00:39:26.035Z,5.20
2018-07-21T00:41:54.401Z,5.40
2018-07-21T00:44:22.968Z,5.15
2018-07-21T00:46:51.291Z,5.60
2018-07-21T00:49:19.736Z,6.03
2018-07-21T00:51:48.036Z,5.90
2018-07-21T00:54:16.363Z,6.10
2018-07-21T00:56:44.778Z,6.70
2018-07-21T00:59:13.084Z,6.40
2018-07-21T01:01:41.474Z,6.30
2018-07-21T01:04:09.798Z,6.40
2018-07-21T01:06:38.153Z,6.15
2018-07-21T01:09:08.801Z,6.70
2018-07-21T01:11:37.141Z,6.00
2018-07-21T01:14:05.658Z,6.47
2018-07-21T01:16:34.016Z,6.20
2018-07-21T01:19:02.347Z,5.58
2018-07-21T01:21:30.706Z,5.97
2018-07-21T01:23:59.055Z,6.67
2018-07-21T01:26:27.371Z,6.28
2018-07-21T01:28:55.789Z,6.20
2018-07-21T01:31:24.133Z,6.20
2018-07-21T01:33:52.460Z,6.50
2018-07-21T01:36:20.773Z,6.28
2018-07-21T01:38:49.122Z,6.35
2018-07-21T01:41:17.465Z,6.20
2018-07-21T01:43:45.764Z,5.75
2018-07-21T01:46:14.101Z,5.90
2018-07-21T01:48:42.426Z,5.80
2018-07-21T01:51:10.862Z,5.80
2018-07-21T01:53:39.163Z,5.60
2018-07-21T01:56:07.505Z,5.50
2018-07-21T01:58:35.821Z,6.05
2018-07-21T02:01:04.253Z,5.30
2018-07-21T02:03:32.588Z,5.60
2018-07-21T02:06:00.958Z,5.80
2018-07-21T02:08:29.279Z,6.00
2018-07-21T02:10:57.632Z,5.65
2018-07-21T02:13:25.980Z,5.83
2018-07-21T02:15:54.280Z,6.15
2018-07-21T02:18:22.622Z,5.85
2018-07-21T02:20:50.935Z,6.10
2018-07-21T02:23:19.274Z,5.97
2018-07-21T02:25:47.626Z,5.80
2018-07-21T02:28:16.037Z,6.20
2018-07-21T02:30:44.351Z,5.92
2018-07-21T02:33:12.760Z,6.50
2018-07-21T02:35:41.164Z,6.40
2018-07-21T02:38:09.488Z,6.58
2018-07-21T02:40:37.794Z,5.83
2018-07-21T02:43:06.460Z,7.03
2018-07-21T02:45:34.857Z,6.35
2018-07-21T02:48:03.178Z,6.67
2018-07-21T02:50:31.549Z,6.10
2018-07-21T02:53:00.238Z,6.33
2018-07-21T02:55:29.314Z,6.55
2018-07-21T02:57:57.647Z,6.30
2018-07-21T03:00:26.107Z,6.12
2018-07-21T03:02:54.460Z,6.53
2018-07-21T03:05:22.838Z,6.62
2018-07-21T03:07:51.180Z,7.08
2018-07-21T03:10:19.481Z,6.83
2018-07-21T03:12:47.790Z,6.83
2018-07-21T03:15:16.140Z,7.20
2018-07-21T03:17:44.453Z,6.90
2018-07-21T03:20:12.800Z,6.97
2018-07-21T03:22:41.132Z,7.27
2018-07-21T03:25:09.545Z,7.13
2018-07-21T03:27:37.924Z,7.10
2018-07-21T03:30:06.303Z,7.13
2018-07-21T03:32:34.601Z,7.00
2018-07-21T03:35:02.945Z,7.20
2018-07-21T03:37:31.284Z,7.50
2018-07-21T03:39:59.734Z,8.00
2018-07-21T03:42:28.017Z,7.80
2018-07-21T03:44:56.395Z,9.03
2018-07-21T03:47:24.731Z,8.40
2018-07-21T03:49:53.217Z,8.98
2018-07-21T03:52:21.556Z,9.70
2018-07-21T03:54:49.908Z,8.60
2018-07-21T03:57:18.290Z,8.47
2018-07-21T03:59:46.575Z,8.63
2018-07-21T04:02:14.924Z,8.65
2018-07-21T04:04:43.296Z,7.93
2018-07-21T04:07:12.164Z,8.55
2018-07-21T04:09:40.495Z,8.20
2018-07-21T04:12:08.848Z,7.97
2018-07-21T04:14:37.246Z,8.65
2018-07-21T04:17:05.610Z,8.60
2018-07-21T04:19:33.984Z,8.50
2018-07-21T04:22:02.374Z,8.70
2018-07-21T04:24:30.706Z,8.03
2018-07-21T04:26:59.046Z,7.90
2018-07-21T04:29:27.376Z,7.92
2018-07-21T04:31:55.720Z,8.18
2018-07-21T04:34:24.075Z,7.92
2018-07-21T04:36:52.497Z,8.78
2018-07-21T04:39:20.890Z,8.90
2018-07-21T04:41:49.281Z,9.05
2018-07-21T04:44:17.605Z,8.60
2018-07-21T04:46:45.943Z,8.85
2018-07-21T04:49:14.246Z,8.90
2018-07-21T04:51:42.589Z,8.83
2018-07-21T04:54:10.943Z,9.50
2018-07-21T04:56:39.296Z,9.70
2018-07-21T04:59:07.611Z,10.20
2018-07-21T05:01:35.993Z,9.73
2018-07-21T05:04:04.390Z,8.90
2018-07-21T05:06:32.752Z,9.00
2018-07-21T05:09:01.099Z,8.80
2018-07-21T05:11:29.435Z,8.03
2018-07-21T05:13:57.834Z,8.10
2018-07-21T05:16:26.286Z,8.40
2018-07-21T05:18:55.316Z,9.10
2018-07-21T05:21:23.671Z,9.00
2018-07-21T05:23:51.999Z,8.80
2018-07-21T05:26:20.333Z,10.03
2018-07-21T05:28:48.959Z,9.80
2018-07-21T05:31:17.318Z,9.60
2018-07-21T05:33:45.645Z,10.30
2018-07-21T05:36:13.990Z,10.08
2018-07-21T05:38:42.350Z,9.78
2018-07-21T05:41:10.786Z,9.53
2018-07-21T05:43:39.123Z,9.68
2018-07-21T05:46:07.497Z,9.40
2018-07-21T05:48:36.060Z,10.00
2018-07-21T05:51:04.358Z,10.80
2018-07-21T05:53:32.735Z,9.97
2018-07-21T05:56:01.094Z,10.50
2018-07-21T05:58:29.435Z,10.37
2018-07-21T06:00:57.846Z,10.40
2018-07-21T06:03:26.320Z,11.07
2018-07-21T06:05:54.669Z,10.70
2018-07-21T06:08:22.992Z,10.60
2018-07-21T06:10:51.577Z,10.00
2018-07-21T06:13:19.901Z,10.90
2018-07-21T06:15:48.257Z,10.10
2018-07-21T06:18:16.625Z,11.07
2018-07-21T06:20:45.021Z,10.50
2018-07-21T06:23:13.361Z,11.05
2018-07-21T06:25:41.728Z,10.90
2018-07-21T06:28:10.137Z,11.10
2018-07-21T06:30:38.373Z,11.43
2018-07-21T06:33:06.857Z,11.93
2018-07-21T06:35:35.320Z,11.33
2018-07-21T06:38:03.608Z,12.60
2018-07-21T06:40:31.963Z,11.55
2018-07-21T06:43:00.300Z,11.63
2018-07-21T06:45:28.827Z,11.60
2018-07-21T06:47:57.212Z,12.75
2018-07-21T06:50:25.494Z,12.93
2018-07-21T06:52:53.828Z,13.72
2018-07-21T06:55:22.155Z,13.78
2018-07-21T06:57:50.547Z,13.45
2018-07-21T07:00:18.910Z,14.65
2018-07-21T07:02:47.531Z,14.15
2018-07-21T07:05:15.869Z,14.20
2018-07-21T07:07:44.201Z,15.78
2018-07-21T07:10:12.632Z,15.40
2018-07-21T07:12:40.959Z,16.12
2018-07-21T07:15:09.286Z,16.00
2018-07-21T07:17:37.584Z,16.10
2018-07-21T07:20:05.952Z,16.87
2018-07-21T07:22:34.253Z,16.80
2018-07-21T07:25:02.614Z,16.60
2018-07-21T07:27:31.033Z,15.70
2018-07-21T07:29:59.306Z,16.52
2018-07-21T07:32:27.759Z,15.80
2018-07-21T07:34:56.111Z,15.08
2018-07-21T07:37:24.437Z,15.43
2018-07-21T07:39:52.786Z,14.75
2018-07-21T07:42:21.122Z,15.05
2018-07-21T07:44:49.424Z,15.28
2018-07-21T07:47:17.751Z,15.58
2018-07-21T07:49:46.087Z,15.10
2018-07-21T07:52:14.480Z,15.10
2018-07-21T07:54:42.814Z,15.20
2018-07-21T07:57:11.213Z,14.40
2018-07-21T07:59:39.601Z,14.95
2018-07-21T08:02:07.947Z,14.40
2018-07-21T08:04:36.339Z,14.03
2018-07-21T08:07:04.679Z,15.03
2018-07-21T08:09:33.020Z,14.90
2018-07-21T08:12:01.354Z,14.85
2018-07-21T08:14:29.764Z,14.83
2018-07-21T08:16:58.079Z,15.10
2018-07-21T08:19:26.480Z,16.42
2018-07-21T08:21:54.834Z,16.60
2018-07-21T08:24:23.302Z,14.50
2018-07-21T08:26:51.719Z,14.63
2018-07-21T08:29:20.034Z,14.90
2018-07-21T08:31:48.423Z,16.07
2018-07-21T08:34:16.709Z,16.35
2018-07-21T08:36:45.204Z,13.43
2018-07-21T08:39:13.572Z,13.03
2018-07-21T08:41:41.953Z,14.00
2018-07-21T08:44:10.285Z,14.33
2018-07-21T08:46:38.601Z,14.25
2018-07-21T08:49:06.964Z,25.55
2018-07-21T08:51:35.339Z,14.55
2018-07-21T08:54:03.677Z,14.23
2018-07-21T08:56:32.294Z,12.93
2018-07-21T08:59:00.726Z,12.75
2018-07-21T09:01:29.097Z,13.10
2018-07-21T09:03:57.451Z,12.25
2018-07-21T09:06:25.831Z,15.30
2018-07-21T09:08:54.131Z,14.03
2018-07-21T09:11:22.494Z,16.10
2018-07-21T09:13:50.816Z,17.60
2018-07-21T09:16:19.214Z,16.75
2018-07-21T09:18:47.575Z,16.45
2018-07-21T09:21:16.014Z,16.70
2018-07-21T09:23:44.383Z,16.10
2018-07-21T09:26:12.739Z,16.57
2018-07-21T09:28:41.098Z,15.63
2018-07-21T09:31:09.383Z,16.17
2018-07-21T09:33:37.740Z,16.07
2018-07-21T09:36:06.115Z,15.93
2018-07-21T09:38:34.495Z,16.37
2018-07-21T09:41:02.912Z,16.50
2018-07-21T09:43:31.231Z,16.45
2018-07-21T09:45:59.811Z,17.00
2018-07-21T09:48:28.216Z,15.63
2018-07-21T09:50:56.589Z,12.35
2018-07-21T09:53:24.941Z,10.63
2018-07-21T09:55:53.326Z,10.00
2018-07-21T09:58:21.646Z,10.32
2018-07-21T10:00:55.120Z,9.37
2018-07-21T10:03:23.525Z,8.90
2018-07-21T10:05:51.862Z,8.50
2018-07-21T10:08:20.240Z,8.90
2018-07-21T10:10:48.595Z,8.58
2018-07-21T10:13:16.972Z,8.90
2018-07-21T10:15:45.420Z,9.40
2018-07-21T10:18:13.775Z,7.90
2018-07-21T10:20:42.111Z,8.40
2018-07-21T10:23:10.509Z,7.95
2018-07-21T10:25:45.028Z,7.45
2018-07-21T10:28:18.791Z,7.55
2018-07-21T10:30:47.113Z,8.15
2018-07-21T10:33:15.472Z,8.50
2018-07-21T10:35:43.856Z,7.65
2018-07-21T10:38:12.202Z,7.70
2018-07-21T10:40:40.567Z,8.40
2018-07-21T10:43:08.876Z,7.80
2018-07-21T10:45:37.226Z,8.43
2018-07-21T10:48:05.557Z,7.10
2018-07-21T10:50:33.976Z,6.80
2018-07-21T10:53:02.277Z,6.92
2018-07-21T10:55:30.612Z,7.00
2018-07-21T10:57:58.958Z,7.33
2018-07-21T11:00:27.309Z,6.90
2018-07-21T11:02:55.672Z,7.43
2018-07-21T11:05:23.964Z,7.60
2018-07-21T11:07:52.399Z,7.72
2018-07-21T11:10:20.730Z,7.97
2018-07-21T11:12:49.035Z,7.37
2018-07-21T11:15:17.498Z,6.90
2018-07-21T11:17:45.784Z,6.58
2018-07-21T11:20:14.279Z,6.60
2018-07-21T11:22:42.580Z,7.28
2018-07-21T11:25:10.901Z,7.15
2018-07-21T11:27:39.241Z,7.10
2018-07-21T11:30:08.173Z,7.47
2018-07-21T11:32:36.482Z,7.15
2018-07-21T11:35:05.099Z,7.47
2018-07-21T11:37:33.440Z,7.60
2018-07-21T11:40:01.747Z,7.55
2018-07-21T11:42:30.092Z,8.10
2018-07-21T11:44:58.428Z,7.00
2018-07-21T11:47:27.067Z,7.17
2018-07-21T11:49:55.417Z,6.85
2018-07-21T11:52:24.172Z,7.10
2018-07-21T11:54:52.533Z,7.20
2018-07-21T11:57:20.849Z,7.33
2018-07-21T11:59:49.203Z,7.10
2018-07-21T12:02:17.559Z,7.00
2018-07-21T12:04:45.855Z,6.97
2018-07-21T12:07:14.224Z,6.40
2018-07-21T12:09:42.545Z,6.62
2018-07-21T12:12:10.947Z,6.72
2018-07-21T12:14:39.268Z,7.25
2018-07-21T12:17:07.585Z,7.08
2018-07-21T12:19:35.888Z,7.05
2018-07-21T12:22:04.256Z,6.70
2018-07-21T12:24:32.590Z,6.87
2018-07-21T12:27:01.028Z,6.08
2018-07-21T12:29:29.351Z,6.17
2018-07-21T12:31:57.867Z,7.12
2018-07-21T12:34:26.295Z,6.50
2018-07-21T12:36:54.610Z,7.50
2018-07-21T12:39:22.928Z,6.65
2018-07-21T12:41:51.264Z,6.80
2018-07-21T12:44:19.673Z,6.80
2018-07-21T12:46:48.017Z,10.05
2018-07-21T12:49:16.404Z,7.35
2018-07-21T12:51:44.723Z,7.25
2018-07-21T12:54:13.072Z,6.90
2018-07-21T12:56:41.379Z,6.70
2018-07-21T12:59:09.785Z,6.85
2018-07-21T13:01:38.118Z,6.70
2018-07-21T13:04:06.479Z,6.90
2018-07-21T13:06:34.770Z,6.00
2018-07-21T13:09:03.207Z,6.12
2018-07-21T13:11:31.524Z,6.80
2018-07-21T13:13:59.864Z,6.70
2018-07-21T13:16:28.312Z,6.40
2018-07-21T13:18:56.784Z,6.40
2018-07-21T13:21:25.120Z,6.87
2018-07-21T13:23:53.701Z,5.97
2018-07-21T13:26:22.057Z,6.35
2018-07-21T13:28:50.382Z,6.40
2018-07-21T13:31:18.900Z,6.67
2018-07-21T13:33:47.387Z,6.50
2018-07-21T13:36:15.686Z,6.30
2018-07-21T13:38:43.990Z,6.50
2018-07-21T13:41:12.302Z,6.97
2018-07-21T13:43:40.704Z,6.80
2018-07-21T13:46:09.052Z,6.45
2018-07-21T13:48:37.381Z,6.10
2018-07-21T13:51:05.746Z,6.50
2018-07-21T13:53:34.108Z,6.08
2018-07-21T13:56:02.508Z,6.17
2018-07-21T13:58:31.000Z,5.92
2018-07-21T14:00:59.380Z,5.92
2018-07-21T14:03:27.738Z,6.90
2018-07-21T14:05:56.096Z,6.40
2018-07-21T14:08:24.411Z,6.50
2018-07-21T14:10:52.778Z,7.20
2018-07-21T14:13:21.237Z,6.58
2018-07-21T14:15:49.569Z,7.47
2018-07-21T14:18:17.984Z,7.20
2018-07-21T14:20:47.135Z,7.10
2018-07-21T14:23:15.466Z,7.65
2018-07-21T14:25:43.884Z,7.28
2018-07-21T14:28:12.312Z,7.40
2018-07-21T14:30:40.683Z,7.13
2018-07-21T14:33:08.990Z,7.70
2018-07-21T14:35:37.322Z,8.08
2018-07-21T14:38:06.112Z,7.22
2018-07-21T14:40:34.479Z,7.65
2018-07-21T14:43:02.831Z,8.10
2018-07-21T14:45:31.147Z,9.28
2018-07-21T14:47:59.461Z,7.10
2018-07-21T14:50:27.790Z,5.90
2018-07-21T14:52:56.160Z,7.42
2018-07-21T14:55:24.598Z,8.03
2018-07-21T14:57:52.911Z,11.00
2018-07-21T15:00:21.556Z,10.75
2018-07-21T15:02:49.900Z,3.05
2018-07-21T15:05:18.257Z,0.40
2018-07-21T15:07:46.640Z,0.60
2018-07-21T15:10:14.977Z,0.40
2018-07-21T15:12:43.731Z,0.40
2018-07-21T15:15:12.060Z,0.40
2018-07-21T15:17:40.535Z,0.40
2018-07-21T15:20:08.813Z,0.40
2018-07-21T15:22:37.192Z,1.20
2018-07-21T15:25:05.558Z,0.40
2018-07-21T15:27:33.925Z,0.40
2018-07-21T15:30:02.295Z,0.40
2018-07-21T15:32:30.606Z,0.50
2018-07-21T15:34:58.967Z,1.40
2018-07-21T15:37:27.275Z,0.40
2018-07-21T15:39:55.748Z,0.40
2018-07-21T15:42:23.980Z,0.40
2018-07-21T15:44:52.317Z,0.40
2018-07-21T15:47:20.612Z,0.40
2018-07-21T15:49:49.395Z,0.60
2018-07-21T15:52:17.716Z,0.40
2018-07-21T15:54:46.106Z,0.60
2018-07-21T15:57:14.933Z,0.50
2018-07-21T15:59:43.273Z,0.40
2018-07-21T16:02:11.577Z,0.40
2018-07-21T16:04:39.888Z,0.40
2018-07-21T16:07:08.287Z,0.37
2018-07-21T16:09:36.661Z,0.40
2018-07-21T16:12:05.033Z,0.40
2018-07-21T16:14:33.348Z,0.40
2018-07-21T16:17:01.695Z,0.40
2018-07-21T16:19:30.088Z,0.50
2018-07-21T16:21:58.568Z,0.40
2018-07-21T16:24:26.952Z,0.40
2018-07-21T16:26:55.375Z,0.40
2018-07-21T16:29:23.685Z,0.40
2018-07-21T16:31:51.984Z,0.40
2018-07-21T16:34:20.335Z,0.40
2018-07-21T16:36:48.858Z,0.40
2018-07-21T16:39:17.188Z,0.70
2018-07-21T16:41:45.536Z,0.40
2018-07-21T16:44:13.859Z,0.40
2018-07-21T16:46:42.203Z,0.40
2018-07-21T16:49:10.617Z,0.40
2018-07-21T16:51:38.975Z,0.40
2018-07-21T16:54:07.323Z,0.40
2018-07-21T16:56:35.680Z,0.40
2018-07-21T16:59:04.067Z,0.40
2018-07-21T17:01:32.469Z,0.40
2018-07-21T17:04:00.812Z,0.40
2018-07-21T17:06:29.121Z,0.40
2018-07-21T17:08:57.959Z,0.40
2018-07-21T17:11:26.393Z,0.90
2018-07-21T17:13:54.755Z,0.40
2018-07-21T17:16:23.153Z,0.60
2018-07-21T17:18:51.495Z,0.40
2018-07-21T17:21:19.869Z,0.45
2018-07-21T17:23:48.268Z,0.40
2018-07-21T17:26:16.585Z,0.40
2018-07-21T17:28:45.023Z,0.40
2018-07-21T17:31:13.354Z,0.40
2018-07-21T17:33:41.750Z,0.40
2018-07-21T17:36:10.115Z,0.60
2018-07-21T17:38:38.465Z,0.60
2018-07-21T17:41:06.765Z,0.40
2018-07-21T17:43:35.116Z,0.40
2018-07-21T17:46:03.441Z,0.40
2018-07-21T17:48:31.755Z,0.40
2018-07-21T17:51:00.120Z,0.60
2018-07-21T17:53:28.428Z,0.40
2018-07-21T17:55:56.820Z,0.40
2018-07-21T17:58:25.150Z,0.40
2018-07-21T18:00:53.473Z,0.50
2018-07-21T18:03:21.800Z,0.40
2018-07-21T18:05:50.368Z,0.40
2018-07-21T18:08:18.696Z,0.40
2018-07-21T18:10:46.985Z,0.70
2018-07-21T18:13:15.339Z,0.40
2018-07-21T18:15:43.656Z,0.40
2018-07-21T18:18:12.342Z,0.40
2018-07-21T18:20:40.734Z,0.40
2018-07-21T18:23:09.092Z,0.40
2018-07-21T18:25:37.622Z,0.80
2018-07-21T18:28:06.051Z,0.60
2018-07-21T18:30:34.397Z,0.40
2018-07-21T18:33:09.107Z,0.40
2018-07-21T18:35:37.590Z,0.40
2018-07-21T18:38:06.057Z,0.40
2018-07-21T18:40:34.422Z,0.40
2018-07-21T18:43:02.773Z,0.40
2018-07-21T18:45:31.178Z,0.40
2018-07-21T18:47:59.543Z,0.40
2018-07-21T18:50:27.959Z,0.57
2018-07-21T18:52:56.309Z,0.40
2018-07-21T18:55:24.707Z,0.40
2018-07-21T18:57:53.225Z,0.40
2018-07-21T19:00:21.612Z,0.40
2018-07-21T19:02:50.032Z,0.40
2018-07-21T19:05:18.460Z,0.40
2018-07-21T19:07:47.626Z,0.40
2018-07-21T19:10:16.534Z,0.70
2018-07-21T19:12:47.753Z,0.40
2018-07-21T19:15:21.587Z,0.42
2018-07-21T19:17:50.111Z,0.40
2018-07-21T19:20:23.665Z,0.60
2018-07-21T19:22:52.140Z,0.40
2018-07-21T19:25:25.683Z,0.40
2018-07-21T19:27:54.088Z,0.40
2018-07-21T19:30:22.442Z,0.40
2018-07-21T19:32:56.215Z,0.40
2018-07-21T19:35:24.572Z,0.60
2018-07-21T19:37:52.970Z,0.65
2018-07-21T19:40:21.337Z,0.50
2018-07-21T19:42:49.826Z,0.70
2018-07-21T19:45:18.180Z,0.40
2018-07-21T19:47:46.654Z,0.40
2018-07-21T19:50:14.915Z,0.40
2018-07-21T19:52:43.369Z,0.40
2018-07-21T19:55:11.970Z,0.40
2018-07-21T19:57:40.348Z,0.40
2018-07-21T20:00:08.802Z,0.40
2018-07-21T20:02:37.155Z,0.40
2018-07-21T20:05:05.707Z,0.40
2018-07-21T20:07:34.754Z,0.40
2018-07-21T20:10:03.072Z,0.40
2018-07-21T20:12:31.409Z,0.40
2018-07-21T20:14:59.784Z,1.00
2018-07-21T20:17:28.141Z,0.40
2018-07-21T20:19:56.466Z,0.40
2018-07-21T20:22:24.850Z,0.40
2018-07-21T20:24:53.221Z,0.40
2018-07-21T20:27:21.548Z,0.40
2018-07-21T20:29:50.102Z,0.40
2018-07-21T20:32:18.453Z,1.00
2018-07-21T20:34:46.880Z,0.40
2018-07-21T20:37:15.169Z,0.40
2018-07-21T20:39:43.613Z,0.40
2018-07-21T20:42:11.973Z,0.40
2018-07-21T20:44:40.370Z,0.40
2018-07-21T20:47:08.708Z,0.40
2018-07-21T20:49:37.185Z,0.40
2018-07-21T20:52:05.523Z,0.40
2018-07-21T20:54:34.060Z,0.40
2018-07-21T20:57:02.415Z,0.40
2018-07-21T20:59:30.721Z,0.40
2018-07-21T21:01:59.077Z,0.40
2018-07-21T21:04:27.466Z,0.55
2018-07-21T21:06:55.814Z,0.55
2018-07-21T21:09:24.204Z,0.40
2018-07-21T21:11:52.581Z,0.40
2018-07-21T21:14:20.992Z,0.40
2018-07-21T21:16:49.293Z,0.70
2018-07-21T21:19:17.658Z,0.62
2018-07-21T21:21:45.976Z,0.40
2018-07-21T21:24:14.320Z,0.40
2018-07-21T21:26:42.612Z,0.40
2018-07-21T21:29:10.918Z,0.40
2018-07-21T21:31:39.283Z,0.80
2018-07-21T21:34:07.627Z,0.40
2018-07-21T21:36:35.972Z,0.50
2018-07-21T21:39:06.665Z,0.40
2018-07-21T21:41:34.967Z,0.40
2018-07-21T21:44:03.442Z,0.40
2018-07-21T21:46:31.755Z,0.40
2018-07-21T21:49:00.051Z,0.70
2018-07-21T21:51:28.413Z,0.40
2018-07-21T21:53:57.053Z,0.40
2018-07-21T21:56:25.554Z,0.62
2018-07-21T21:58:53.955Z,0.40
2018-07-21T22:01:22.235Z,0.40
2018-07-21T22:03:50.559Z,0.40
2018-07-21T22:06:19.000Z,0.40
2018-07-21T22:08:47.370Z,0.40
2018-07-21T22:11:15.733Z,0.40
2018-07-21T22:13:44.026Z,0.40
2018-07-21T22:16:12.442Z,0.40
2018-07-21T22:18:40.777Z,0.40
2018-07-21T22:21:09.164Z,0.40
2018-07-21T22:23:37.490Z,0.40
2018-07-21T22:26:05.846Z,0.40
2018-07-21T22:28:34.163Z,0.40
2018-07-21T22:31:02.504Z,0.40
2018-07-21T22:33:30.837Z,1.00
2018-07-21T22:35:59.268Z,0.40
2018-07-21T22:38:27.575Z,0.40
2018-07-21T22:40:55.879Z,0.50
2018-07-21T22:43:24.239Z,0.40
2018-07-21T22:45:52.576Z,0.40
2018-07-21T22:48:20.903Z,0.60
2018-07-21T22:50:49.226Z,0.60
2018-07-21T22:53:17.560Z,0.40
2018-07-21T22:55:45.867Z,0.40
2018-07-21T22:58:14.220Z,0.40
2018-07-21T23:00:42.638Z,0.42
2018-07-21T23:03:10.983Z,0.40
2018-07-21T23:05:39.297Z,0.40
2018-07-21T23:08:07.662Z,0.62
2018-07-21T23:10:35.965Z,0.40
2018-07-21T23:13:04.450Z,1.00
2018-07-21T23:15:32.728Z,0.40
2018-07-21T23:18:01.077Z,0.80
2018-07-21T23:20:29.422Z,0.70
2018-07-21T23:22:57.739Z,0.40
2018-07-21T23:25:26.096Z,0.40
2018-07-21T23:27:54.485Z,0.50
2018-07-21T23:30:22.885Z,0.90
2018-07-21T23:32:51.187Z,0.57
2018-07-21T23:35:19.547Z,0.50
2018-07-21T23:37:47.852Z,0.50
2018-07-21T23:40:16.240Z,0.80
2018-07-21T23:42:44.599Z,0.50
2018-07-21T23:45:12.945Z,0.40
2018-07-21T23:47:41.255Z,0.40
2018-07-21T23:50:09.777Z,0.40
2018-07-21T23:52:38.107Z,0.40
2018-07-21T23:55:07.531Z,0.40
2018-07-21T23:57:35.864Z,0.60
